Latest Coastal Weather Observations for King Island Airport

IDV60701

Issued at 6:45 pm EST Wednesday 20 August 2014 (issued every 10 minutes, with the page automatically refreshed every 10 minutes)

About coastal observations | Map of coastal stations | Coastal observations for VIC | Marine services | Other Formats
Station Details ID: 098017 Name: KING ISLAND AIRPORT Lat: -39.88 Lon: 143.88 Height: 37.0 m
Data from the previous 72 hours. | See also: Recent months at King Island Airport
Date/Time
EST
Temp

°C
Wind Pressure Rain
since 9am
mm
Weather Cloud Vis
km
Sea
Height
m
Swell
Dir
 
Speed
knots
Gust
knots
hPa Trend Height
m
Period
s
Dir
20/06:30pm 8.8 S 5 6 1028.6 - 0.0 - - 10 - - - -
20/06:00pm 9.4 S 5 6 1028.3 - 0.0 - - 10 - - - -
20/05:30pm 10.1 S 4 5 1028.0 - 0.0 - Partly cloudy 10 - - - -
20/05:00pm 10.7 SSE 5 8 1027.9 - 0.0 - Partly cloudy 10 - - - -
20/04:30pm 11.0 S 6 9 1027.6 - 0.0 - Partly cloudy 10 - - - -
20/04:00pm 11.3 SSE 8 14 1027.4 - 0.0 - Partly cloudy 10 - - - -
20/03:30pm 11.7 S 7 11 1027.2 - 0.0 - Partly cloudy 10 - - - -
20/03:00pm 11.6 SSE 7 11 1027.0 - 0.0 - Partly cloudy 10 - - - -
20/02:30pm 11.4 S 9 13 1027.0 - 0.0 - Partly cloudy 10 - - - -
20/02:00pm 12.5 SSW 10 13 1026.8 - 0.0 - Partly cloudy 10 - - - -
20/01:30pm 11.5 SSW 6 8 1027.0 - 0.0 - Partly cloudy 10 - - - -
20/01:00pm 12.4 SSE 6 12 1027.2 - 0.0 - Partly cloudy 10 - - - -
20/12:30pm 10.8 S 9 15 1027.4 - 0.0 - Partly cloudy 10 - - - -
20/12:00pm 12.0 SSW 8 11 1027.5 - 0.0 - Cloudy 10 - - - -
20/11:30am 11.6 S 8 11 1027.8 - 0.0 - Partly cloudy 10 - - - -
20/11:00am 11.4 S 7 10 1027.9 - 0.0 - Partly cloudy 10 - - - -
20/10:30am 11.5 SSW 9 15 1027.8 - 0.0 - Partly cloudy 10 - - - -
20/10:00am 11.2 S 7 11 1027.7 - 0.0 - Partly cloudy 10 - - - -
20/09:30am 10.6 S 6 8 1027.7 - 0.0 - Partly cloudy 10 - - - -
20/09:01am 10.0 S 3 6 1027.6 - 0.0 - Partly cloudy 10 - - - -
20/09:00am 9.9 S 4 6 1027.6 - 0.2 Showers Cloudy 10 - - - -
20/08:49am 9.7 SSW 5 7 1027.5 - 0.0 - Partly cloudy 5 - - - -
20/08:35am 9.7 S 3 4 1027.4 - 0.0 - Partly cloudy 10 - - - -
20/08:30am 9.0 S 4 6 1027.3 - 0.0 - Partly cloudy 10 - - - -
20/08:16am 9.2 SSW 6 9 1027.3 - 0.0 - Partly cloudy 5 - - - -
20/08:00am 9.4 S 3 5 1027.1 - 0.0 - Partly cloudy 10 - - - -
20/07:30am 7.5 SSW 5 5 1026.9 - 0.0 - Partly cloudy 10 - - - -
20/07:00am 7.1 SSE 2 4 1026.5 - 0.0 - Partly cloudy 10 - - - -
20/06:30am 6.2 CALM 0 3 1026.4 - 0.0 - Partly cloudy 10 - - - -
20/06:00am 6.3 CALM 0 0 1026.1 - 0.0 - Mostly clear 10 - - - -
20/05:30am 6.7 CALM 0 0 1026.1 - 0.0 - Partly cloudy 10 - - - -
20/05:00am 7.5 SSE 1 4 1026.0 - 0.0 - Partly cloudy 10 - - - -
20/04:30am 7.3 SSE 5 6 1025.9 - 0.0 - Partly cloudy 10 - - - -
20/04:00am 7.7 S 4 6 1025.9 - 0.0 - - 10 - - - -
20/03:30am 9.2 S 8 10 1026.0 - 0.0 - Partly cloudy 10 - - - -
20/03:00am 9.6 SSW 7 9 1026.0 - 0.0 - Cloudy 10 - - - -
20/02:30am 9.4 S 4 5 1026.1 - 0.0 - Cloudy 10 - - - -
20/02:00am 9.5 S 3 5 1026.2 - 0.0 - Cloudy 10 - - - -
20/01:30am 9.4 S 4 5 1026.1 - 0.0 - Cloudy 10 - - - -
20/01:00am 10.1 SW 6 12 1026.1 - 0.0 - Cloudy 10 - - - -
20/12:30am 10.1 WSW 6 10 1026.2 - 0.0 - Cloudy 10 - - - -
20/12:00am 9.9 SW 6 8 1026.2 - 0.0 - Cloudy 10 - - - -
 
Date/Time
EST
Temp

°C
Wind Pressure Rain
since 9am
mm
Weather Cloud Vis
km
Sea
Height
m
Swell
Dir
 
Speed
knots
Gust
knots
hPa Trend Height
m
Period
s
Dir
19/11:30pm 10.0 W 8 11 1026.2 - 0.0 - Cloudy 10 - - - -
19/11:00pm 9.8 WSW 7 8 1026.2 - 0.0 - Cloudy 10 - - - -
19/10:30pm 9.5 WSW 7 9 1026.3 - 0.0 - Partly cloudy 10 - - - -
19/10:00pm 7.9 CALM 0 0 1026.3 - 0.0 - Partly cloudy 10 - - - -
19/09:30pm 8.7 SSE 1 4 1026.4 - 0.0 - Partly cloudy 10 - - - -
19/09:00pm 9.1 S 6 9 1026.5 - 0.0 Showers Mostly cloudy 10 - - - -
19/08:30pm 9.7 SSW 6 9 1026.5 - 0.0 - Partly cloudy 10 - - - -
19/08:00pm 9.2 SW 6 7 1026.3 - 0.0 - Partly cloudy 10 - - - -
19/07:30pm 9.3 SW 6 7 1026.1 - 0.0 - Partly cloudy 10 - - - -
19/07:00pm 9.4 SW 5 6 1026.0 - 0.0 - Partly cloudy 10 - - - -
19/06:30pm 9.4 SW 3 4 1025.7 - 0.0 - Partly cloudy 10 - - - -
19/06:00pm 9.6 SW 3 4 1025.4 - 0.0 - Mostly cloudy 10 - - - -
19/05:30pm 9.8 WSW 5 7 1025.3 - 0.0 - Partly cloudy 10 - - - -
19/05:00pm 10.0 SW 11 16 1025.1 - 0.0 - Partly cloudy 10 - - - -
19/04:30pm 11.3 SW 13 16 1025.1 - 0.0 - Partly cloudy 10 - - - -
19/04:00pm 11.9 SW 9 12 1024.9 - 0.0 - Cloudy 10 - - - -
19/03:30pm 11.8 SW 8 13 1024.9 - 0.0 - Cloudy 10 - - - -
19/03:00pm 12.3 SW 7 10 1024.9 - 0.0 - Cloudy 10 - - - -
19/02:30pm 11.9 SW 9 15 1025.1 - 0.0 - Cloudy 10 - - - -
19/02:00pm 11.8 SSW 8 14 1025.0 - 0.0 - Cloudy 10 - - - -
19/01:30pm 11.6 S 8 11 1025.3 - 0.0 - Cloudy 10 - - - -
19/01:00pm 11.5 S 8 13 1025.5 - 0.0 - Cloudy 10 - - - -
19/12:30pm 11.6 S 8 12 1025.8 - 0.0 - Cloudy 10 - - - -
19/12:00pm 12.0 SSW 11 14 1026.1 - 0.0 - Cloudy 10 - - - -
19/11:30am 11.2 SSW 10 14 1026.4 - 0.0 - Cloudy 10 - - - -
19/11:00am 11.0 S 8 12 1026.5 - 0.0 - Cloudy 10 - - - -
19/10:30am 11.0 S 8 12 1026.4 - 0.0 - Cloudy 10 - - - -
19/10:00am 10.9 S 6 8 1026.4 - 0.0 - Cloudy 10 - - - -
19/09:30am 10.7 S 5 9 1026.3 - 0.0 - Cloudy 10 - - - -
19/09:00am 10.0 S 4 6 1026.2 - 0.0 - Cloudy 10 - - - -
19/08:30am 9.7 SSW 5 8 1026.1 - 0.0 - Cloudy 10 - - - -
19/08:00am 9.1 S 4 5 1025.8 - 0.0 - Cloudy 10 - - - -
19/07:30am 8.9 S 5 6 1025.5 - 0.0 - Cloudy 10 - - - -
19/07:00am 8.9 S 4 5 1025.2 - 0.0 - Cloudy 10 - - - -
19/06:30am 8.9 S 4 5 1025.0 - 0.0 - Cloudy 10 - - - -
19/06:00am 8.7 SSE 5 9 1025.1 - 0.0 - Cloudy 10 - - - -
19/05:30am 8.9 SSE 4 4 1024.8 - 0.0 - Cloudy 10 - - - -
19/05:00am 9.0 SSE 6 9 1024.7 - 0.0 - Cloudy 10 - - - -
19/04:30am 8.7 SSE 5 7 1024.5 - 0.0 - Cloudy 10 - - - -
19/04:00am 8.7 S 3 5 1024.4 - 0.0 - Cloudy 10 - - - -
19/03:30am 8.8 SSE 4 6 1024.5 - 0.0 - Cloudy 10 - - - -
19/03:00am 8.5 S 6 11 1024.5 - 0.0 - Mostly cloudy 10 - - - -
19/02:30am 8.3 S 5 6 1024.8 - 0.0 - Cloudy 10 - - - -
19/02:00am 8.1 SSE 6 7 1024.9 - 0.0 - Cloudy 10 - - - -
19/01:30am 8.3 S 5 6 1025.0 - 0.0 - Cloudy 10 - - - -
19/01:00am 8.5 SSE 5 7 1025.1 - 0.0 - Cloudy 10 - - - -
19/12:30am 8.0 SSE 6 9 1025.2 - 0.0 - Partly cloudy 10 - - - -
19/12:00am 7.9 SSE 7 9 1025.1 - 0.0 - Mostly clear 10 - - - -
 
Date/Time
EST
Temp

°C
Wind Pressure Rain
since 9am
mm
Weather Cloud Vis
km
Sea
Height
m
Swell
Dir
 
Speed
knots
Gust
knots
hPa Trend Height
m
Period
s
Dir
18/11:30pm 7.1 SSE 6 7 1025.3 - 0.0 - Partly cloudy 10 - - - -
18/11:00pm 7.5 SSE 5 7 1025.4 - 0.0 - Partly cloudy 10 - - - -
18/10:30pm 7.9 S 6 7 1025.4 - 0.0 - Partly cloudy 10 - - - -
18/10:00pm 8.3 S 6 7 1025.5 - 0.0 - Cloudy 10 - - - -
18/09:30pm 8.3 S 5 7 1025.3 - 0.0 - Cloudy 10 - - - -
18/09:00pm 8.1 S 5 6 1025.1 - 0.0 - Mostly cloudy 10 - - - -
18/08:30pm 7.7 S 4 5 1025.0 - 0.0 - Partly cloudy 10 - - - -
18/08:00pm 7.5 S 6 7 1024.5 - 0.0 - Partly cloudy 10 - - - -
18/07:30pm 7.0 S 5 6 1024.4 - 0.0 - - 10 - - - -
18/07:00pm 7.8 SSE 5 6 1024.2 - 0.0 - - 10 - - - -
18/06:30pm 8.2 S 5 6 1023.8 - 0.0 - - 10 - - - -
18/06:00pm 8.8 SE 4 4 1023.5 - 0.0 - - 10 - - - -
18/05:30pm 9.5 SSE 6 8 1023.3 - 0.0 - - 10 - - - -
18/05:00pm 10.7 SSE 7 10 1022.9 - 0.0 - - 10 - - - -
18/04:30pm 11.2 SSE 8 10 1022.8 - 0.0 - Partly cloudy 10 - - - -
18/04:00pm 12.0 SE 8 12 1022.7 - 0.0 - Partly cloudy 10 - - - -
18/03:30pm 11.4 S 9 12 1022.6 - 0.0 - Partly cloudy 10 - - - -
18/03:00pm 12.1 SSE 8 12 1022.7 - 0.0 - Mostly clear 10 - - - -
18/02:30pm 12.4 SSE 8 11 1022.7 - 0.0 - Partly cloudy 10 - - - -
18/02:00pm 12.7 S 8 12 1022.6 - 0.0 - Partly cloudy 10 - - - -
18/01:30pm 12.8 SSE 9 13 1022.8 - 0.0 - Partly cloudy 10 - - - -
18/01:00pm 12.1 SSE 9 14 1023.0 - 0.0 - Partly cloudy 10 - - - -
18/12:30pm 12.5 SE 9 13 1023.2 - 0.0 - - - - - - -
18/12:00pm 12.5 SSE 11 16 1023.2 - 0.0 - - 10 - - - -
18/11:30am 12.6 SSE 10 15 1023.5 - 0.0 - - - - - - -
18/11:00am 12.1 SSE 10 17 1023.5 - 0.0 - - 10 - - - -
18/10:30am 11.6 SSE 11 17 1023.5 - 0.0 - - 10 - - - -
18/10:00am 11.2 SSE 12 16 1023.7 - 0.0 - - 10 - - - -
18/09:30am 10.8 SSE 11 16 1023.8 - 0.0 - - 10 - - - -
18/09:00am 10.2 SE 6 8 1023.7 - 0.2 - - 10 - - - -
18/08:30am 7.9 SSE 1 4 1023.7 - 0.2 - - 10 - - - -
18/08:00am 7.4 S 5 6 1023.5 - 0.2 - - 10 - - - -
18/07:30am 6.5 S 6 7 1023.3 - 0.2 - - 10 - - - -
18/07:00am 6.4 S 6 8 1023.0 - 0.2 - - 10 - - - -
18/06:30am 5.7 SSE 5 8 1022.8 - 0.2 - - 10 - - - -
18/06:00am 6.0 SSE 5 7 1022.7 - 0.2 - - 10 - - - -
18/05:30am 6.2 SSE 7 8 1022.5 - 0.2 - Partly cloudy 10 - - - -
18/05:00am 5.9 SSE 6 8 1022.4 - 0.2 - - 10 - - - -
18/04:30am 5.5 SSE 6 7 1022.2 - 0.2 - - 10 - - - -
18/04:00am 5.6 S 7 8 1022.0 - 0.2 - - 10 - - - -
18/03:30am 6.2 S 6 8 1021.9 - 0.2 - - 10 - - - -
18/03:00am 6.4 S 6 7 1021.9 - 0.2 Recent precip. - 10 - - - -
18/02:30am 6.0 S 6 8 1022.2 - 0.2 - - 10 - - - -
18/02:00am 5.9 S 6 9 1022.2 - 0.0 - - 10 - - - -
18/01:30am 6.9 S 7 10 1022.2 - 0.0 - - 10 - - - -
18/01:00am 7.1 S 7 9 1022.2 - 0.0 - - 10 - - - -
18/12:30am 7.1 S 7 9 1022.3 - 0.0 - - 10 - - - -
18/12:00am 6.7 S 7 10 1022.2 - 0.0 - - 10 - - - -
 
Date/Time
EST
Temp

°C
Wind Pressure Rain
since 9am
mm
Weather Cloud Vis
km
Sea
Height
m
Swell
Dir
 
Speed
knots
Gust
knots
hPa Trend Height
m
Period
s
Dir
17/11:30pm 6.9 S 8 10 1022.3 - 0.0 - - 10 - - - -
17/11:00pm 6.9 S 8 10 1022.1 - 0.0 - - 10 - - - -
17/10:30pm 6.9 S 8 11 1022.0 - 0.0 - - 10 - - - -
17/10:00pm 7.0 S 7 9 1022.1 - 0.0 - - 10 - - - -
17/09:30pm 7.0 S 7 8 1022.2 - 0.0 - - 10 - - - -
17/09:00pm 6.9 SSE 7 8 1022.1 - 0.0 - - 10 - - - -
17/08:30pm 7.6 S 7 9 1021.9 - 0.0 - - 10 - - - -
17/08:00pm 7.2 S 8 11 1021.9 - 0.0 - - 10 - - - -
17/07:30pm 7.9 S 7 11 1021.7 - 0.0 - - 10 - - - -
17/07:00pm 8.0 S 8 11 1021.4 - 0.0 - Partly cloudy 10 - - - -

Other Formats:

Comma delimited format used in spreadsheet applications
http://www.bom.gov.au/fwo/IDV60701/IDV60701.94850.axf

JavaScript Object Notation format (JSON) in row-major order
http://www.bom.gov.au/fwo/IDV60701/IDV60701.94850.json